Terminal Aerodrome Forecast
Issued by NWS

Home | Current Version | Previous Version | Text Only | Print | Product List | Glossary On
Versions: 1 2 3 4 5 6 7 8 9 10 11 12 13 14 15 16 17 18 19 20 21 22 23 24 25 26 27 28 29 30 31 32 33 34 35 36 37 38 39 40 41 42 43 44
000
FTUS41 KCTP 251754
TAFBFD
TAF
KBFD 251754Z 2518/2618 09006KT P6SM VCSH FEW023
     FM252100 11010KT 4SM -RA BR OVC015
     FM260300 12009KT P6SM OVC015 PROB30 2603/2606 P6SM -RA OVC025
     FM260600 11003KT P6SM OVC007=

USA.gov is the U.S. government's official web portal to all federal, state and local government web resources and services.